Weather observations for the past three days for
Key West Naval Air Station
Imperial (Metric)
Date Time (edt) Wind (mph) Vis. (mi.) Weather Sky Cond. Temperature (ºF) Relative Humidity Wind Chill (°F) Heat Index (°F) Pressure Precipitation (in)
Air Dwpt 6 hour altimeter (in) sea level (mb) 1 hr 3 hr 6 hr
Max. Min.
07 06:53 S 7 10.00 Partly Cloudy SCT020 79 73 82% 82 29.98 1015.1
07 05:53 SE 8 10.00 Partly Cloudy SCT019 SCT024 79 73 82% 82 29.96 1014.5
07 04:53 SE 9 10.00 A Few Clouds FEW020 79 72 79% 82 29.96 1014.3
07 03:53 SE 12 10.00 A Few Clouds FEW021 79 72 79% 82 29.96 1014.5
07 02:53 SE 12 10.00 Partly Cloudy SCT021 79 71.1 77% 82 29.98 1014.9
07 01:53 SE 12 10.00 Fair CLR 79 71.1 81 78.1 77% 82 29.99 1015.3
07 00:53 SE 9 10.00 Fair CLR 79 71.1 77% 82 30.01 1016.0
06 23:53 E 10 10.00 A Few Clouds FEW022 78.1 71.1 79% 80 30.02 1016.4
06 22:53 SE 8 10.00 Fair CLR 79 71.1 77% 82 30.01 1016.0
06 21:53 E 9 10.00 Fair CLR 79 72 79% 82 30 1015.7
06 20:53 E 9 10.00 Fair CLR 80.1 72 76% 84 30 1015.7
06 19:53 E 5 10.00 Fair CLR 81 71.1 86 81 72% 85 29.99 1015.4
06 18:53 SE 6 10.00 A Few Clouds FEW026 FEW250 82.9 72 70% 88 29.99 1015.4
06 17:53 S 7 10.00 A Few Clouds FEW026 FEW250 84 72 67% 90 29.98 1014.9
06 16:53 SE 7 10.00 A Few Clouds FEW026 FEW250 84.9 71.1 63% 90 29.98 1015.0
06 15:53 SE 8 10.00 A Few Clouds FEW026 FEW250 84.9 72 65% 91 29.99 1015.5
06 14:53 Vrbl 6 10.00 A Few Clouds FEW025 FEW250 84.9 72 65% 91 30.01 1016.2
06 13:53 S 8 10.00 Partly Cloudy FEW025 SCT250 86 71.1 86 79 61% 92 30.03 1016.8
06 12:53 SE 6 10.00 Partly Cloudy SCT250 84 70 63% 88 30.04 1016.9
06 11:53 Vrbl 6 10.00 Partly Cloudy FEW025 SCT250 84 70 63% 88 30.04 1017.0
06 10:53 S 6 10.00 A Few Clouds FEW025 FEW250 82.9 70 65% 87 30.03 1016.6
06 09:53 S 6 10.00 Partly Cloudy FEW025 SCT250 82 71.1 69% 86 30.02 1016.5
06 08:53 SE 5 10.00 Partly Cloudy SCT250 81 71.1 72% 85 30.01 1016.0
06 07:53 Calm 10.00 Partly Cloudy SCT025 SCT250 79 72 79 75 79% 82 30.01 1016.0
06 06:53 Calm 10.00 Partly Cloudy SCT025 SCT250 77 69.1 77% 79 30 1015.6
06 05:53 Calm 10.00 A Few Clouds FEW025 75.9 69.1 79% 77 29.98 1015.1
06 04:53 Calm 10.00 Mostly Cloudy BKN027 77 70 79% 79 29.97 1014.8
06 03:53 Calm 10.00 Fair CLR 75.9 68 77% 77 29.97 1014.6
06 02:53 Calm 10.00 Fair CLR 77 69.1 77% 79 29.97 1014.8
06 01:53 N 3 10.00 Fair CLR 77 69.1 81 77 77% 79 29.99 1015.2
06 00:53 N 7 10.00 Fair CLR 78.1 70 76% 80 30 1015.7
05 23:53 W 3 10.00 Fair CLR 79 69.1 72% 82 30 1015.8
05 22:53 SW 3 10.00 Fair CLR 80.1 68 67% 83 29.99 1015.4
05 21:53 Calm 10.00 A Few Clouds FEW030 FEW250 80.1 69.1 69% 83 29.98 1014.9
05 20:53 Calm 10.00 A Few Clouds FEW040 FEW250 80.1 70 71% 83 29.97 1014.6
05 19:53 N 7 10.00 A Few Clouds FEW040 FEW250 81 69.1 86 81 67% 84 29.95 1014.1
05 18:53 N 6 10.00 A Few Clouds FEW045 FEW250 82.9 70 65% 87 29.94 1013.8
05 17:53 N 7 10.00 Partly Cloudy SCT045 SCT250 84 69.1 61% 88 29.93 1013.5
05 16:53 N 8 10.00 Mostly Cloudy FEW030 SCT060 BKN250 84.9 70 61% 89 29.94 1013.7
05 15:53 N 7 10.00 Partly Cloudy FEW030 SCT055 84.9 71.1 63% 90 29.95 1014.0
05 14:53 N 7 10.00 Partly Cloudy SCT030 SCT055 84.9 72 65% 91 29.96 1014.5
05 13:53 NW 7 10.00 Partly Cloudy SCT025 SCT050 84 72 84 78.1 67% 90 29.98 1015.0
05 12:53 Calm 10.00 Partly Cloudy SCT028 82.9 72 70% 88 29.98 1015.0
05 11:53 Vrbl 6 10.00 Partly Cloudy SCT025 SCT060 82.9 72 70% 88 29.99 1015.3
05 10:53 N 7 10.00 Partly Cloudy SCT022 SCT060 82 72 72% 87 29.99 1015.3
05 09:53 NW 5 10.00 Partly Cloudy SCT025 82 72 72% 87 29.97 1014.7
05 08:53 N 7 10.00 Partly Cloudy SCT029 81 73 77% 86 29.96 1014.2
05 07:53 NW 6 10.00 Partly Cloudy SCT025 78.1 72 81 77 82% 80 29.95 1014.0
05 06:53 N 3 10.00 Partly Cloudy SCT024 81 75 82% 87 29.92 1013.1
05 05:53 N 7 10.00 Mostly Cloudy BKN024 77 72 85% 78 29.91 1012.6
05 04:53 N 6 10.00 Mostly Cloudy BKN018 77 72 85% 78 29.9 1012.4
05 03:53 NW 6 10.00 A Few Clouds FEW015 77 72 85% 78 29.9 1012.4
05 02:53 N 6 10.00 Partly Cloudy FEW070 SCT080 77 73 88% 78 29.91 1012.7
05 01:53 NE 5 10.00 Partly Cloudy FEW019 SCT028 75 70 80.1 75 84% 75 29.93 1013.4 0.03 0.03
05 00:53 W 3 10.00 Mostly Cloudy SCT021 BKN025 BKN049 80.1 73 79% 84 29.94 1013.8
04 23:53 SW 6 10.00 Overcast FEW020 OVC070 80.1 73 79% 84 29.95 1014.0
04 22:53 Calm 10.00 Mostly Cloudy FEW018 BKN070 BKN085 79 73 82% 82 29.95 1013.9
04 21:53 S 3 10.00 Mostly Cloudy SCT020 BKN070 80.1 73 79% 84 29.94 1013.8
04 20:53 SE 5 10.00 Mostly Cloudy SCT025 BKN065 79 72 79% 82 29.92 1013.1
04 19:53 SE 6 10.00 Mostly Cloudy SCT021 BKN060 79 72 84.9 79 79% 82 29.91 1012.7 0.02
04 18:53 SE 8 10.00 Mostly Cloudy SCT021 BKN055 79 72 79% 82 29.91 1012.7
04 17:53 SE 9 10.00 Mostly Cloudy SCT021 BKN040 79 73 82% 82 29.91 1012.6 0.02
04 16:53 E 8 10.00 Mostly Cloudy SCT021 BKN035 82.9 73 72% 89 29.9 1012.4
04 15:53 N 10 10.00 Mostly Cloudy SCT024 BKN060 84 73 70% 90 29.92 1013.1
04 14:53 NE 10 10.00 Mostly Cloudy SCT022 BKN060 82 72 72% 87 29.95 1014.0
04 13:53 N 12 10.00 Partly Cloudy SCT022 SCT060 82 72 84 78.1 72% 87 29.96 1014.3
04 12:53 N 10 10.00 Mostly Cloudy SCT020 BKN060 82 71.1 69% 86 29.97 1014.8
04 11:53 N 12 10.00 Mostly Cloudy SCT020 BKN050 82 72 72% 87 29.98 1015.0
04 10:53 Vrbl 7 10.00 Mostly Cloudy BKN055 82 73 74% 87 29.98 1015.0
04 09:53 N 10 10.00 Partly Cloudy SCT014 SCT080 81 73 77% 86 29.97 1014.7
04 08:53 N 10 10.00 Partly Cloudy SCT018 SCT080 79 73 82% 82 29.96 1014.2
04 07:53 N 8 10.00 Partly Cloudy FEW020 SCT090 78.1 72 79 75.9 82% 80 29.95 1013.9
Date Time (edt) Wind (mph) Vis. (mi.) Weather Sky Cond. Air Dwpt Max. Min. Relative Humidity Wind Chill (°F) Heat Index (°F) altimeter (in) sea level (mb) 1 hr 3 hr 6 hr
6 hour
Temperature (ºF) Pressure Precipitation (in)